Acton, Montana
Current Conditions -  °F | °C
As of 4:53 PM on Sunday 25 Jan 2015 (Local Time) from KBIL Reporting Station
Broken Clouds Broken Clouds  
Wind Chill: 59°   Ceiling: 28000
Heat Index: 59°   Visibility: 10mi
Dew Point: 28°   Wind: 21mph
Humidity: 31%   Direction: 260°W
Pressure: 30.03"   Gusts: 30mph
Location:  45.93°N, 108.69°W
Report Text: KBIL 252353Z 26018G26KT 10SM FEW100 SCT200 BKN280 15/M02 A3003 RMK AO2 PK WND 27026/2344 SLP168 T01501022 10172 20083 51015
Loading
Personal Weather Stations






























Interactive Weather Map New forecast layout! Learn more

10-Day Weather Forecast

Advertisements
Track Severe Weather on mobile